sensor_id;sensor_type;location;lat;lon;timestamp;P1;durP1;ratioP1;P2;durP2;ratioP2
7359;SDS011;3720;48.274;7.796;2022-07-05T00:02:29;1.90;;;1.40;;
7359;SDS011;3720;48.274;7.796;2022-07-05T00:05:02;3.30;;;1.63;;
7359;SDS011;3720;48.274;7.796;2022-07-05T00:07:34;4.38;;;1.58;;
7359;SDS011;3720;48.274;7.796;2022-07-05T00:10:06;2.00;;;1.55;;
7359;SDS011;3720;48.274;7.796;2022-07-05T00:12:39;4.07;;;1.40;;
7359;SDS011;3720;48.274;7.796;2022-07-05T00:15:12;2.08;;;1.45;;
7359;SDS011;3720;48.274;7.796;2022-07-05T00:17:45;2.63;;;1.60;;
7359;SDS011;3720;48.274;7.796;2022-07-05T00:20:16;1.75;;;1.50;;
7359;SDS011;3720;48.274;7.796;2022-07-05T00:22:49;1.80;;;1.50;;
7359;SDS011;3720;48.274;7.796;2022-07-05T00:25:20;5.80;;;1.70;;
7359;SDS011;3720;48.274;7.796;2022-07-05T00:27:52;3.78;;;1.70;;
7359;SDS011;3720;48.274;7.796;2022-07-05T00:30:26;2.92;;;1.50;;
7359;SDS011;3720;48.274;7.796;2022-07-05T00:32:58;2.45;;;1.67;;
7359;SDS011;3720;48.274;7.796;2022-07-05T00:35:29;1.95;;;1.60;;
7359;SDS011;3720;48.274;7.796;2022-07-05T00:38:01;2.70;;;1.50;;
7359;SDS011;3720;48.274;7.796;2022-07-05T00:40:34;4.05;;;1.90;;
7359;SDS011;3720;48.274;7.796;2022-07-05T00:43:06;1.70;;;1.40;;
7359;SDS011;3720;48.274;7.796;2022-07-05T00:45:39;2.38;;;1.40;;
7359;SDS011;3720;48.274;7.796;2022-07-05T00:48:11;3.33;;;1.50;;
7359;SDS011;3720;48.274;7.796;2022-07-05T00:50:43;2.50;;;1.40;;
7359;SDS011;3720;48.274;7.796;2022-07-05T00:53:15;2.42;;;1.75;;
7359;SDS011;3720;48.274;7.796;2022-07-05T00:55:47;4.25;;;1.80;;
7359;SDS011;3720;48.274;7.796;2022-07-05T00:58:19;2.15;;;1.50;;
7359;SDS011;3720;48.274;7.796;2022-07-05T01:00:52;5.20;;;1.83;;
7359;SDS011;3720;48.274;7.796;2022-07-05T01:03:25;2.08;;;1.50;;
7359;SDS011;3720;48.274;7.796;2022-07-05T01:05:57;2.78;;;1.50;;
7359;SDS011;3720;48.274;7.796;2022-07-05T01:08:29;2.83;;;1.50;;
7359;SDS011;3720;48.274;7.796;2022-07-05T01:11:04;2.50;;;1.42;;
7359;SDS011;3720;48.274;7.796;2022-07-05T01:13:36;3.35;;;1.55;;
7359;SDS011;3720;48.274;7.796;2022-07-05T01:16:10;6.15;;;1.80;;
7359;SDS011;3720;48.274;7.796;2022-07-05T01:18:42;3.38;;;1.58;;
7359;SDS011;3720;48.274;7.796;2022-07-05T01:21:15;3.47;;;1.80;;
7359;SDS011;3720;48.274;7.796;2022-07-05T01:23:53;3.55;;;1.83;;
7359;SDS011;3720;48.274;7.796;2022-07-05T01:26:26;3.03;;;1.80;;
7359;SDS011;3720;48.274;7.796;2022-07-05T01:28:57;2.55;;;1.50;;
7359;SDS011;3720;48.274;7.796;2022-07-05T01:31:30;2.40;;;1.80;;
7359;SDS011;3720;48.274;7.796;2022-07-05T01:34:02;3.25;;;1.60;;
7359;SDS011;3720;48.274;7.796;2022-07-05T01:36:35;2.92;;;1.80;;
7359;SDS011;3720;48.274;7.796;2022-07-05T01:39:09;3.83;;;1.83;;
7359;SDS011;3720;48.274;7.796;2022-07-05T01:41:41;2.50;;;1.65;;
7359;SDS011;3720;48.274;7.796;2022-07-05T01:44:12;3.00;;;1.58;;
7359;SDS011;3720;48.274;7.796;2022-07-05T01:46:45;2.45;;;1.63;;
7359;SDS011;3720;48.274;7.796;2022-07-05T01:49:17;4.43;;;1.70;;
7359;SDS011;3720;48.274;7.796;2022-07-05T01:51:52;1.80;;;1.70;;
7359;SDS011;3720;48.274;7.796;2022-07-05T01:54:29;2.60;;;1.63;;
7359;SDS011;3720;48.274;7.796;2022-07-05T01:57:02;2.75;;;1.73;;
7359;SDS011;3720;48.274;7.796;2022-07-05T01:59:36;4.45;;;1.80;;
7359;SDS011;3720;48.274;7.796;2022-07-05T02:02:08;5.60;;;1.75;;
7359;SDS011;3720;48.274;7.796;2022-07-05T02:04:40;2.33;;;1.58;;
7359;SDS011;3720;48.274;7.796;2022-07-05T02:07:13;2.90;;;1.80;;
7359;SDS011;3720;48.274;7.796;2022-07-05T02:09:46;4.63;;;1.80;;
7359;SDS011;3720;48.274;7.796;2022-07-05T02:12:18;2.20;;;1.70;;
7359;SDS011;3720;48.274;7.796;2022-07-05T02:14:50;5.28;;;1.77;;
7359;SDS011;3720;48.274;7.796;2022-07-05T02:17:22;2.47;;;1.73;;
7359;SDS011;3720;48.274;7.796;2022-07-05T02:19:54;2.65;;;1.67;;
7359;SDS011;3720;48.274;7.796;2022-07-05T02:22:26;4.40;;;1.50;;
7359;SDS011;3720;48.274;7.796;2022-07-05T02:24:59;2.75;;;1.80;;
7359;SDS011;3720;48.274;7.796;2022-07-05T02:27:31;2.17;;;1.60;;
7359;SDS011;3720;48.274;7.796;2022-07-05T02:30:03;2.47;;;1.75;;
7359;SDS011;3720;48.274;7.796;2022-07-05T02:32:36;3.30;;;1.75;;
7359;SDS011;3720;48.274;7.796;2022-07-05T02:35:09;2.40;;;1.60;;
7359;SDS011;3720;48.274;7.796;2022-07-05T02:37:42;6.07;;;1.90;;
7359;SDS011;3720;48.274;7.796;2022-07-05T02:40:15;2.53;;;1.73;;
7359;SDS011;3720;48.274;7.796;2022-07-05T02:42:47;4.47;;;1.90;;
7359;SDS011;3720;48.274;7.796;2022-07-05T02:45:19;2.50;;;1.77;;
7359;SDS011;3720;48.274;7.796;2022-07-05T02:47:51;1.80;;;1.50;;
7359;SDS011;3720;48.274;7.796;2022-07-05T02:50:23;1.63;;;1.52;;
7359;SDS011;3720;48.274;7.796;2022-07-05T02:52:55;5.45;;;2.13;;
7359;SDS011;3720;48.274;7.796;2022-07-05T02:55:28;2.15;;;1.67;;
7359;SDS011;3720;48.274;7.796;2022-07-05T02:58:01;2.05;;;1.67;;
7359;SDS011;3720;48.274;7.796;2022-07-05T03:00:33;2.20;;;1.60;;
7359;SDS011;3720;48.274;7.796;2022-07-05T03:03:05;2.40;;;1.60;;
7359;SDS011;3720;48.274;7.796;2022-07-05T03:05:37;2.70;;;1.60;;
7359;SDS011;3720;48.274;7.796;2022-07-05T03:08:09;1.88;;;1.70;;
7359;SDS011;3720;48.274;7.796;2022-07-05T03:10:43;4.35;;;1.63;;
7359;SDS011;3720;48.274;7.796;2022-07-05T03:13:15;2.88;;;1.90;;
7359;SDS011;3720;48.274;7.796;2022-07-05T03:15:47;1.80;;;1.70;;
7359;SDS011;3720;48.274;7.796;2022-07-05T03:18:18;2.63;;;1.60;;
7359;SDS011;3720;48.274;7.796;2022-07-05T03:20:50;2.88;;;1.80;;
7359;SDS011;3720;48.274;7.796;2022-07-05T03:23:22;2.13;;;1.52;;
7359;SDS011;3720;48.274;7.796;2022-07-05T03:25:56;2.45;;;1.70;;
7359;SDS011;3720;48.274;7.796;2022-07-05T03:28:28;1.80;;;1.55;;
7359;SDS011;3720;48.274;7.796;2022-07-05T03:31:00;3.67;;;1.50;;
7359;SDS011;3720;48.274;7.796;2022-07-05T03:33:32;3.03;;;1.40;;
7359;SDS011;3720;48.274;7.796;2022-07-05T03:36:05;4.63;;;1.70;;
7359;SDS011;3720;48.274;7.796;2022-07-05T03:38:37;2.95;;;1.60;;
7359;SDS011;3720;48.274;7.796;2022-07-05T03:41:11;4.28;;;1.85;;
7359;SDS011;3720;48.274;7.796;2022-07-05T03:43:43;2.28;;;1.60;;
7359;SDS011;3720;48.274;7.796;2022-07-05T03:46:15;3.47;;;1.95;;
7359;SDS011;3720;48.274;7.796;2022-07-05T03:48:47;4.70;;;2.30;;
7359;SDS011;3720;48.274;7.796;2022-07-05T03:51:18;3.22;;;1.80;;
7359;SDS011;3720;48.274;7.796;2022-07-05T03:53:50;2.53;;;1.80;;
7359;SDS011;3720;48.274;7.796;2022-07-05T03:56:24;2.63;;;1.65;;
7359;SDS011;3720;48.274;7.796;2022-07-05T03:58:56;4.70;;;1.90;;
7359;SDS011;3720;48.274;7.796;2022-07-05T04:01:28;6.55;;;2.00;;
7359;SDS011;3720;48.274;7.796;2022-07-05T04:04:00;3.83;;;1.60;;
7359;SDS011;3720;48.274;7.796;2022-07-05T04:06:33;3.22;;;1.70;;
7359;SDS011;3720;48.274;7.796;2022-07-05T04:09:05;1.77;;;1.50;;
7359;SDS011;3720;48.274;7.796;2022-07-05T04:11:38;3.58;;;1.70;;
7359;SDS011;3720;48.274;7.796;2022-07-05T04:14:10;2.65;;;1.60;;
7359;SDS011;3720;48.274;7.796;2022-07-05T04:16:42;2.47;;;1.67;;
7359;SDS011;3720;48.274;7.796;2022-07-05T04:19:14;3.67;;;1.70;;
7359;SDS011;3720;48.274;7.796;2022-07-05T04:21:46;3.60;;;1.77;;
7359;SDS011;3720;48.274;7.796;2022-07-05T04:24:18;2.58;;;1.80;;
7359;SDS011;3720;48.274;7.796;2022-07-05T04:26:51;2.78;;;1.55;;
7359;SDS011;3720;48.274;7.796;2022-07-05T04:29:23;4.93;;;1.63;;
7359;SDS011;3720;48.274;7.796;2022-07-05T04:31:55;3.03;;;1.70;;
7359;SDS011;3720;48.274;7.796;2022-07-05T04:34:27;2.08;;;1.48;;
7359;SDS011;3720;48.274;7.796;2022-07-05T04:36:58;3.72;;;1.90;;
7359;SDS011;3720;48.274;7.796;2022-07-05T04:39:30;2.40;;;1.75;;
7359;SDS011;3720;48.274;7.796;2022-07-05T04:42:05;4.82;;;1.80;;
7359;SDS011;3720;48.274;7.796;2022-07-05T04:44:37;3.88;;;1.90;;
7359;SDS011;3720;48.274;7.796;2022-07-05T04:47:09;3.25;;;1.70;;
7359;SDS011;3720;48.274;7.796;2022-07-05T04:49:40;2.45;;;1.70;;
7359;SDS011;3720;48.274;7.796;2022-07-05T04:52:13;2.85;;;1.92;;
7359;SDS011;3720;48.274;7.796;2022-07-05T04:54:45;3.50;;;2.00;;
7359;SDS011;3720;48.274;7.796;2022-07-05T04:57:18;3.85;;;2.10;;
7359;SDS011;3720;48.274;7.796;2022-07-05T04:59:50;3.20;;;1.55;;
7359;SDS011;3720;48.274;7.796;2022-07-05T05:02:22;2.92;;;1.80;;
7359;SDS011;3720;48.274;7.796;2022-07-05T05:04:54;2.25;;;1.77;;
7359;SDS011;3720;48.274;7.796;2022-07-05T05:07:26;3.00;;;1.70;;
7359;SDS011;3720;48.274;7.796;2022-07-05T05:09:58;3.65;;;1.83;;
7359;SDS011;3720;48.274;7.796;2022-07-05T05:12:32;2.78;;;1.63;;
7359;SDS011;3720;48.274;7.796;2022-07-05T05:15:04;2.55;;;1.70;;
7359;SDS011;3720;48.274;7.796;2022-07-05T05:17:39;2.38;;;1.70;;
7359;SDS011;3720;48.274;7.796;2022-07-05T05:20:12;4.10;;;1.73;;
7359;SDS011;3720;48.274;7.796;2022-07-05T05:22:45;3.65;;;1.67;;
7359;SDS011;3720;48.274;7.796;2022-07-05T05:25:18;5.32;;;1.60;;
7359;SDS011;3720;48.274;7.796;2022-07-05T05:27:51;2.05;;;1.75;;
7359;SDS011;3720;48.274;7.796;2022-07-05T05:30:23;1.80;;;1.52;;
7359;SDS011;3720;48.274;7.796;2022-07-05T05:32:55;2.15;;;1.60;;
7359;SDS011;3720;48.274;7.796;2022-07-05T05:35:27;6.20;;;1.60;;
7359;SDS011;3720;48.274;7.796;2022-07-05T05:38:00;4.35;;;1.63;;
7359;SDS011;3720;48.274;7.796;2022-07-05T05:40:32;5.20;;;1.90;;
7359;SDS011;3720;48.274;7.796;2022-07-05T05:43:06;5.45;;;2.17;;
7359;SDS011;3720;48.274;7.796;2022-07-05T05:45:38;3.75;;;1.88;;
7359;SDS011;3720;48.274;7.796;2022-07-05T05:48:10;6.82;;;2.22;;
7359;SDS011;3720;48.274;7.796;2022-07-05T05:50:42;3.40;;;1.90;;
7359;SDS011;3720;48.274;7.796;2022-07-05T05:53:13;2.83;;;1.80;;
7359;SDS011;3720;48.274;7.796;2022-07-05T05:55:46;5.95;;;2.13;;
7359;SDS011;3720;48.274;7.796;2022-07-05T05:58:19;2.83;;;1.98;;
7359;SDS011;3720;48.274;7.796;2022-07-05T06:00:53;3.70;;;1.73;;
7359;SDS011;3720;48.274;7.796;2022-07-05T06:03:26;2.85;;;2.08;;
7359;SDS011;3720;48.274;7.796;2022-07-05T06:05:58;3.00;;;1.70;;
7359;SDS011;3720;48.274;7.796;2022-07-05T06:08:30;2.30;;;1.52;;
7359;SDS011;3720;48.274;7.796;2022-07-05T06:11:02;2.28;;;1.60;;
7359;SDS011;3720;48.274;7.796;2022-07-05T06:13:36;4.25;;;2.00;;
7359;SDS011;3720;48.274;7.796;2022-07-05T06:16:08;6.13;;;2.00;;
7359;SDS011;3720;48.274;7.796;2022-07-05T06:18:40;3.17;;;1.60;;
7359;SDS011;3720;48.274;7.796;2022-07-05T06:21:13;3.03;;;1.90;;
7359;SDS011;3720;48.274;7.796;2022-07-05T06:23:44;3.42;;;1.70;;
7359;SDS011;3720;48.274;7.796;2022-07-05T06:26:16;3.67;;;1.98;;
7359;SDS011;3720;48.274;7.796;2022-07-05T06:28:50;3.28;;;1.95;;
7359;SDS011;3720;48.274;7.796;2022-07-05T06:31:22;2.80;;;1.80;;
7359;SDS011;3720;48.274;7.796;2022-07-05T06:33:54;3.42;;;2.03;;
7359;SDS011;3720;48.274;7.796;2022-07-05T06:36:26;4.45;;;2.10;;
7359;SDS011;3720;48.274;7.796;2022-07-05T06:38:58;4.38;;;1.92;;
7359;SDS011;3720;48.274;7.796;2022-07-05T06:41:30;4.00;;;2.08;;
7359;SDS011;3720;48.274;7.796;2022-07-05T06:44:04;5.43;;;2.25;;
7359;SDS011;3720;48.274;7.796;2022-07-05T06:46:36;6.53;;;2.15;;
7359;SDS011;3720;48.274;7.796;2022-07-05T06:49:08;3.63;;;1.92;;
7359;SDS011;3720;48.274;7.796;2022-07-05T06:51:40;4.88;;;2.22;;
7359;SDS011;3720;48.274;7.796;2022-07-05T06:54:12;5.03;;;2.00;;
7359;SDS011;3720;48.274;7.796;2022-07-05T06:56:44;4.50;;;2.00;;
7359;SDS011;3720;48.274;7.796;2022-07-05T06:59:18;3.08;;;1.80;;
7359;SDS011;3720;48.274;7.796;2022-07-05T07:01:51;3.03;;;1.80;;
7359;SDS011;3720;48.274;7.796;2022-07-05T07:04:23;2.65;;;1.70;;
7359;SDS011;3720;48.274;7.796;2022-07-05T07:06:55;3.78;;;1.50;;
7359;SDS011;3720;48.274;7.796;2022-07-05T07:09:27;3.13;;;1.63;;
7359;SDS011;3720;48.274;7.796;2022-07-05T07:11:58;3.17;;;1.50;;
7359;SDS011;3720;48.274;7.796;2022-07-05T07:14:32;4.20;;;1.70;;
7359;SDS011;3720;48.274;7.796;2022-07-05T07:17:04;2.63;;;1.55;;
7359;SDS011;3720;48.274;7.796;2022-07-05T07:19:37;3.22;;;1.70;;
7359;SDS011;3720;48.274;7.796;2022-07-05T07:22:09;3.90;;;1.60;;
7359;SDS011;3720;48.274;7.796;2022-07-05T07:24:41;5.57;;;1.60;;
7359;SDS011;3720;48.274;7.796;2022-07-05T07:27:13;4.82;;;1.67;;
7359;SDS011;3720;48.274;7.796;2022-07-05T07:29:47;4.38;;;1.70;;
7359;SDS011;3720;48.274;7.796;2022-07-05T07:32:19;3.65;;;1.55;;
7359;SDS011;3720;48.274;7.796;2022-07-05T07:34:50;4.63;;;1.70;;
7359;SDS011;3720;48.274;7.796;2022-07-05T07:37:22;3.42;;;1.70;;
7359;SDS011;3720;48.274;7.796;2022-07-05T07:39:55;9.65;;;2.15;;
7359;SDS011;3720;48.274;7.796;2022-07-05T07:42:27;5.18;;;1.50;;
7359;SDS011;3720;48.274;7.796;2022-07-05T07:45:00;2.88;;;1.55;;
7359;SDS011;3720;48.274;7.796;2022-07-05T07:47:34;4.72;;;1.60;;
7359;SDS011;3720;48.274;7.796;2022-07-05T07:50:07;3.55;;;1.50;;
7359;SDS011;3720;48.274;7.796;2022-07-05T07:52:39;3.92;;;1.58;;
7359;SDS011;3720;48.274;7.796;2022-07-05T07:55:11;4.72;;;1.60;;
7359;SDS011;3720;48.274;7.796;2022-07-05T07:57:43;2.88;;;1.50;;
7359;SDS011;3720;48.274;7.796;2022-07-05T08:00:17;3.72;;;1.70;;
7359;SDS011;3720;48.274;7.796;2022-07-05T08:02:49;5.35;;;1.67;;
7359;SDS011;3720;48.274;7.796;2022-07-05T08:05:21;2.75;;;1.60;;
7359;SDS011;3720;48.274;7.796;2022-07-05T08:07:53;3.55;;;1.65;;
7359;SDS011;3720;48.274;7.796;2022-07-05T08:10:25;5.18;;;1.80;;
7359;SDS011;3720;48.274;7.796;2022-07-05T08:12:57;2.97;;;1.60;;
7359;SDS011;3720;48.274;7.796;2022-07-05T08:15:31;4.03;;;1.65;;
7359;SDS011;3720;48.274;7.796;2022-07-05T08:18:03;4.07;;;1.50;;
7359;SDS011;3720;48.274;7.796;2022-07-05T08:20:52;4.82;;;1.75;;
7359;SDS011;3720;48.274;7.796;2022-07-05T08:23:41;5.35;;;1.67;;
7359;SDS011;3720;48.274;7.796;2022-07-05T08:26:14;3.20;;;1.45;;
7359;SDS011;3720;48.274;7.796;2022-07-05T08:28:46;5.00;;;1.70;;
7359;SDS011;3720;48.274;7.796;2022-07-05T08:31:20;3.65;;;1.40;;
7359;SDS011;3720;48.274;7.796;2022-07-05T08:33:52;4.03;;;1.83;;
7359;SDS011;3720;48.274;7.796;2022-07-05T08:36:24;5.68;;;1.75;;
7359;SDS011;3720;48.274;7.796;2022-07-05T08:38:57;2.95;;;1.50;;
7359;SDS011;3720;48.274;7.796;2022-07-05T08:41:29;6.43;;;1.60;;
7359;SDS011;3720;48.274;7.796;2022-07-05T08:44:03;3.05;;;1.52;;
7359;SDS011;3720;48.274;7.796;2022-07-05T08:46:38;2.72;;;1.45;;
7359;SDS011;3720;48.274;7.796;2022-07-05T08:49:11;3.67;;;1.70;;
7359;SDS011;3720;48.274;7.796;2022-07-05T08:51:45;4.10;;;1.63;;
7359;SDS011;3720;48.274;7.796;2022-07-05T08:54:17;3.65;;;1.83;;
7359;SDS011;3720;48.274;7.796;2022-07-05T08:56:50;5.95;;;1.95;;
7359;SDS011;3720;48.274;7.796;2022-07-05T08:59:23;3.50;;;1.70;;
7359;SDS011;3720;48.274;7.796;2022-07-05T09:01:56;4.07;;;1.75;;
7359;SDS011;3720;48.274;7.796;2022-07-05T09:04:30;4.22;;;1.75;;
7359;SDS011;3720;48.274;7.796;2022-07-05T09:07:03;4.53;;;1.50;;
7359;SDS011;3720;48.274;7.796;2022-07-05T09:09:37;4.30;;;1.75;;
7359;SDS011;3720;48.274;7.796;2022-07-05T09:12:13;3.80;;;1.80;;
7359;SDS011;3720;48.274;7.796;2022-07-05T09:14:45;3.15;;;1.58;;
7359;SDS011;3720;48.274;7.796;2022-07-05T09:17:19;5.05;;;1.63;;
7359;SDS011;3720;48.274;7.796;2022-07-05T09:19:51;4.40;;;1.65;;
7359;SDS011;3720;48.274;7.796;2022-07-05T09:22:44;6.55;;;1.90;;
7359;SDS011;3720;48.274;7.796;2022-07-05T09:25:19;3.97;;;1.48;;
7359;SDS011;3720;48.274;7.796;2022-07-05T09:27:54;5.15;;;1.75;;
7359;SDS011;3720;48.274;7.796;2022-07-05T09:30:28;3.30;;;1.52;;
7359;SDS011;3720;48.274;7.796;2022-07-05T09:33:04;2.70;;;1.58;;
7359;SDS011;3720;48.274;7.796;2022-07-05T09:35:38;3.67;;;1.80;;
7359;SDS011;3720;48.274;7.796;2022-07-05T09:38:16;5.80;;;1.85;;
7359;SDS011;3720;48.274;7.796;2022-07-05T09:40:50;3.95;;;1.70;;
7359;SDS011;3720;48.274;7.796;2022-07-05T09:43:24;3.75;;;1.60;;
7359;SDS011;3720;48.274;7.796;2022-07-05T09:45:58;4.95;;;1.83;;
7359;SDS011;3720;48.274;7.796;2022-07-05T09:48:32;2.67;;;1.80;;
7359;SDS011;3720;48.274;7.796;2022-07-05T09:51:06;2.95;;;2.00;;
7359;SDS011;3720;48.274;7.796;2022-07-05T09:53:46;5.05;;;1.90;;
7359;SDS011;3720;48.274;7.796;2022-07-05T09:56:18;3.90;;;1.80;;
7359;SDS011;3720;48.274;7.796;2022-07-05T09:58:52;3.92;;;1.65;;
7359;SDS011;3720;48.274;7.796;2022-07-05T10:01:24;3.95;;;1.60;;
7359;SDS011;3720;48.274;7.796;2022-07-05T10:03:59;6.38;;;1.75;;
7359;SDS011;3720;48.274;7.796;2022-07-05T10:06:32;7.38;;;1.48;;
7359;SDS011;3720;48.274;7.796;2022-07-05T10:09:04;3.95;;;1.60;;
7359;SDS011;3720;48.274;7.796;2022-07-05T10:11:38;3.28;;;1.60;;
7359;SDS011;3720;48.274;7.796;2022-07-05T10:14:16;4.50;;;1.50;;
7359;SDS011;3720;48.274;7.796;2022-07-05T10:16:56;5.25;;;1.65;;
7359;SDS011;3720;48.274;7.796;2022-07-05T10:19:34;4.35;;;1.70;;
7359;SDS011;3720;48.274;7.796;2022-07-05T10:22:11;2.83;;;1.10;;
7359;SDS011;3720;48.274;7.796;2022-07-05T10:24:44;3.15;;;1.08;;
7359;SDS011;3720;48.274;7.796;2022-07-05T10:27:17;3.83;;;1.20;;
7359;SDS011;3720;48.274;7.796;2022-07-05T10:29:49;3.35;;;1.20;;
7359;SDS011;3720;48.274;7.796;2022-07-05T10:32:23;3.33;;;1.13;;
7359;SDS011;3720;48.274;7.796;2022-07-05T10:34:58;2.17;;;1.25;;
7359;SDS011;3720;48.274;7.796;2022-07-05T10:37:33;3.28;;;1.20;;
7359;SDS011;3720;48.274;7.796;2022-07-05T10:40:06;2.13;;;1.08;;
7359;SDS011;3720;48.274;7.796;2022-07-05T10:42:40;3.80;;;1.10;;
7359;SDS011;3720;48.274;7.796;2022-07-05T10:45:21;3.55;;;1.20;;
7359;SDS011;3720;48.274;7.796;2022-07-05T10:50:48;3.00;;;1.10;;
7359;SDS011;3720;48.274;7.796;2022-07-05T10:53:22;2.15;;;1.20;;
7359;SDS011;3720;48.274;7.796;2022-07-05T10:55:57;4.03;;;0.95;;
7359;SDS011;3720;48.274;7.796;2022-07-05T10:58:30;3.35;;;1.30;;
7359;SDS011;3720;48.274;7.796;2022-07-05T11:04:24;5.05;;;1.23;;
7359;SDS011;3720;48.274;7.796;2022-07-05T11:07:01;2.67;;;1.20;;
7359;SDS011;3720;48.274;7.796;2022-07-05T11:09:34;3.10;;;1.10;;
7359;SDS011;3720;48.274;7.796;2022-07-05T11:12:07;2.80;;;0.93;;
7359;SDS011;3720;48.274;7.796;2022-07-05T11:14:44;2.13;;;1.00;;
7359;SDS011;3720;48.274;7.796;2022-07-05T11:17:18;2.05;;;0.90;;
7359;SDS011;3720;48.274;7.796;2022-07-05T11:20:10;2.58;;;0.90;;
7359;SDS011;3720;48.274;7.796;2022-07-05T11:25:37;1.65;;;0.82;;
7359;SDS011;3720;48.274;7.796;2022-07-05T11:28:18;3.58;;;0.98;;
7359;SDS011;3720;48.274;7.796;2022-07-05T11:30:56;2.85;;;1.00;;
7359;SDS011;3720;48.274;7.796;2022-07-05T11:36:19;3.38;;;1.00;;
7359;SDS011;3720;48.274;7.796;2022-07-05T11:39:11;1.58;;;0.90;;
7359;SDS011;3720;48.274;7.796;2022-07-05T11:41:47;1.75;;;0.90;;
7359;SDS011;3720;48.274;7.796;2022-07-05T11:44:19;1.67;;;1.00;;
7359;SDS011;3720;48.274;7.796;2022-07-05T11:46:53;1.70;;;0.90;;
7359;SDS011;3720;48.274;7.796;2022-07-05T11:49:26;1.33;;;0.98;;
7359;SDS011;3720;48.274;7.796;2022-07-05T11:51:59;1.65;;;1.02;;
7359;SDS011;3720;48.274;7.796;2022-07-05T11:54:33;2.33;;;0.98;;
7359;SDS011;3720;48.274;7.796;2022-07-05T11:57:08;2.42;;;1.00;;
7359;SDS011;3720;48.274;7.796;2022-07-05T11:59:41;2.97;;;1.10;;
7359;SDS011;3720;48.274;7.796;2022-07-05T12:02:13;1.60;;;0.98;;
7359;SDS011;3720;48.274;7.796;2022-07-05T12:04:46;3.03;;;0.90;;
7359;SDS011;3720;48.274;7.796;2022-07-05T12:07:25;1.33;;;0.95;;
7359;SDS011;3720;48.274;7.796;2022-07-05T12:09:59;2.92;;;0.80;;
7359;SDS011;3720;48.274;7.796;2022-07-05T12:12:49;2.47;;;0.90;;
7359;SDS011;3720;48.274;7.796;2022-07-05T12:15:23;2.65;;;0.93;;
7359;SDS011;3720;48.274;7.796;2022-07-05T12:17:56;3.75;;;1.10;;
7359;SDS011;3720;48.274;7.796;2022-07-05T12:23:07;2.13;;;0.85;;
7359;SDS011;3720;48.274;7.796;2022-07-05T12:25:41;1.70;;;0.90;;
7359;SDS011;3720;48.274;7.796;2022-07-05T12:28:13;3.65;;;0.90;;
7359;SDS011;3720;48.274;7.796;2022-07-05T12:30:45;2.72;;;1.00;;
7359;SDS011;3720;48.274;7.796;2022-07-05T12:33:19;2.13;;;0.95;;
7359;SDS011;3720;48.274;7.796;2022-07-05T12:35:52;3.17;;;0.90;;
7359;SDS011;3720;48.274;7.796;2022-07-05T12:38:28;3.30;;;0.90;;
7359;SDS011;3720;48.274;7.796;2022-07-05T12:41:02;1.92;;;1.00;;
7359;SDS011;3720;48.274;7.796;2022-07-05T12:43:47;1.25;;;0.88;;
7359;SDS011;3720;48.274;7.796;2022-07-05T12:46:20;1.73;;;0.90;;
7359;SDS011;3720;48.274;7.796;2022-07-05T12:49:07;2.75;;;1.23;;
7359;SDS011;3720;48.274;7.796;2022-07-05T12:51:41;1.35;;;0.68;;
7359;SDS011;3720;48.274;7.796;2022-07-05T12:54:18;3.70;;;0.88;;
7359;SDS011;3720;48.274;7.796;2022-07-05T12:57:10;3.00;;;1.10;;
7359;SDS011;3720;48.274;7.796;2022-07-05T13:00:04;2.25;;;1.00;;
7359;SDS011;3720;48.274;7.796;2022-07-05T13:02:38;2.55;;;1.08;;
7359;SDS011;3720;48.274;7.796;2022-07-05T13:05:18;2.35;;;0.90;;
7359;SDS011;3720;48.274;7.796;2022-07-05T13:07:52;3.65;;;1.05;;
7359;SDS011;3720;48.274;7.796;2022-07-05T13:10:25;2.80;;;1.08;;
7359;SDS011;3720;48.274;7.796;2022-07-05T13:13:03;2.30;;;1.00;;
7359;SDS011;3720;48.274;7.796;2022-07-05T13:15:35;4.55;;;1.10;;
7359;SDS011;3720;48.274;7.796;2022-07-05T13:18:08;4.55;;;1.30;;
7359;SDS011;3720;48.274;7.796;2022-07-05T13:20:40;2.65;;;1.00;;
7359;SDS011;3720;48.274;7.796;2022-07-05T13:23:12;3.20;;;0.95;;
7359;SDS011;3720;48.274;7.796;2022-07-05T13:25:44;3.78;;;1.20;;
7359;SDS011;3720;48.274;7.796;2022-07-05T13:28:18;1.75;;;1.00;;
7359;SDS011;3720;48.274;7.796;2022-07-05T13:30:50;4.05;;;1.02;;
7359;SDS011;3720;48.274;7.796;2022-07-05T13:33:22;3.38;;;0.90;;
7359;SDS011;3720;48.274;7.796;2022-07-05T13:35:54;2.67;;;1.00;;
7359;SDS011;3720;48.274;7.796;2022-07-05T13:38:25;5.28;;;1.13;;
7359;SDS011;3720;48.274;7.796;2022-07-05T13:40:58;2.53;;;1.10;;
7359;SDS011;3720;48.274;7.796;2022-07-05T13:43:31;4.32;;;1.23;;
7359;SDS011;3720;48.274;7.796;2022-07-05T13:46:03;2.25;;;1.20;;
7359;SDS011;3720;48.274;7.796;2022-07-05T13:48:35;3.22;;;1.08;;
7359;SDS011;3720;48.274;7.796;2022-07-05T13:51:07;2.55;;;1.00;;
7359;SDS011;3720;48.274;7.796;2022-07-05T13:53:39;4.55;;;1.00;;
7359;SDS011;3720;48.274;7.796;2022-07-05T13:56:11;1.50;;;0.90;;
7359;SDS011;3720;48.274;7.796;2022-07-05T13:58:44;1.52;;;0.95;;
7359;SDS011;3720;48.274;7.796;2022-07-05T14:01:16;1.02;;;0.75;;
7359;SDS011;3720;48.274;7.796;2022-07-05T14:03:50;2.60;;;1.00;;
7359;SDS011;3720;48.274;7.796;2022-07-05T14:06:23;2.17;;;1.00;;
7359;SDS011;3720;48.274;7.796;2022-07-05T14:08:55;2.08;;;0.80;;
7359;SDS011;3720;48.274;7.796;2022-07-05T14:11:27;4.13;;;1.00;;
7359;SDS011;3720;48.274;7.796;2022-07-05T14:14:01;1.50;;;0.80;;
7359;SDS011;3720;48.274;7.796;2022-07-05T14:16:33;1.25;;;0.90;;
7359;SDS011;3720;48.274;7.796;2022-07-05T14:19:05;1.67;;;0.85;;
7359;SDS011;3720;48.274;7.796;2022-07-05T14:21:37;1.45;;;0.80;;
7359;SDS011;3720;48.274;7.796;2022-07-05T14:24:11;4.30;;;1.08;;
7359;SDS011;3720;48.274;7.796;2022-07-05T14:26:43;3.47;;;1.10;;
7359;SDS011;3720;48.274;7.796;2022-07-05T14:29:16;3.08;;;0.80;;
7359;SDS011;3720;48.274;7.796;2022-07-05T14:31:48;1.88;;;0.70;;
7359;SDS011;3720;48.274;7.796;2022-07-05T14:34:20;2.45;;;0.90;;
7359;SDS011;3720;48.274;7.796;2022-07-05T14:36:53;2.25;;;1.00;;
7359;SDS011;3720;48.274;7.796;2022-07-05T14:39:25;4.22;;;1.00;;
7359;SDS011;3720;48.274;7.796;2022-07-05T14:41:57;1.08;;;0.80;;
7359;SDS011;3720;48.274;7.796;2022-07-05T14:44:30;4.18;;;0.80;;
7359;SDS011;3720;48.274;7.796;2022-07-05T14:47:02;3.22;;;0.80;;
7359;SDS011;3720;48.274;7.796;2022-07-05T14:49:34;3.20;;;1.00;;
7359;SDS011;3720;48.274;7.796;2022-07-05T14:52:06;2.03;;;0.95;;
7359;SDS011;3720;48.274;7.796;2022-07-05T14:54:39;2.03;;;1.02;;
7359;SDS011;3720;48.274;7.796;2022-07-05T14:57:11;1.75;;;0.90;;
7359;SDS011;3720;48.274;7.796;2022-07-05T14:59:44;1.42;;;0.95;;
7359;SDS011;3720;48.274;7.796;2022-07-05T15:02:16;2.28;;;0.90;;
7359;SDS011;3720;48.274;7.796;2022-07-05T15:04:48;3.05;;;0.80;;
7359;SDS011;3720;48.274;7.796;2022-07-05T15:07:20;2.70;;;1.00;;
7359;SDS011;3720;48.274;7.796;2022-07-05T15:09:52;2.95;;;1.10;;
7359;SDS011;3720;48.274;7.796;2022-07-05T15:12:24;1.10;;;0.85;;
7359;SDS011;3720;48.274;7.796;2022-07-05T15:14:58;1.92;;;0.80;;
7359;SDS011;3720;48.274;7.796;2022-07-05T15:17:30;2.17;;;0.80;;
7359;SDS011;3720;48.274;7.796;2022-07-05T15:20:04;4.47;;;0.80;;
7359;SDS011;3720;48.274;7.796;2022-07-05T15:22:36;1.83;;;0.88;;
7359;SDS011;3720;48.274;7.796;2022-07-05T15:25:08;1.67;;;0.70;;
7359;SDS011;3720;48.274;7.796;2022-07-05T15:27:40;2.47;;;0.90;;
7359;SDS011;3720;48.274;7.796;2022-07-05T15:30:14;3.78;;;0.90;;
7359;SDS011;3720;48.274;7.796;2022-07-05T15:32:47;3.40;;;0.90;;
7359;SDS011;3720;48.274;7.796;2022-07-05T15:35:19;1.50;;;0.90;;
7359;SDS011;3720;48.274;7.796;2022-07-05T15:37:51;2.35;;;0.70;;
7359;SDS011;3720;48.274;7.796;2022-07-05T15:40:23;2.65;;;0.70;;
7359;SDS011;3720;48.274;7.796;2022-07-05T15:42:56;1.75;;;0.80;;
7359;SDS011;3720;48.274;7.796;2022-07-05T15:45:30;3.38;;;0.95;;
7359;SDS011;3720;48.274;7.796;2022-07-05T15:48:02;1.98;;;1.00;;
7359;SDS011;3720;48.274;7.796;2022-07-05T15:50:35;3.80;;;0.85;;
7359;SDS011;3720;48.274;7.796;2022-07-05T15:53:06;3.10;;;0.93;;
7359;SDS011;3720;48.274;7.796;2022-07-05T15:55:39;1.02;;;0.77;;
7359;SDS011;3720;48.274;7.796;2022-07-05T15:58:11;2.92;;;0.80;;
7359;SDS011;3720;48.274;7.796;2022-07-05T16:00:44;1.58;;;0.70;;
7359;SDS011;3720;48.274;7.796;2022-07-05T16:03:16;2.15;;;0.77;;
7359;SDS011;3720;48.274;7.796;2022-07-05T16:05:48;1.33;;;0.82;;
7359;SDS011;3720;48.274;7.796;2022-07-05T16:08:20;1.08;;;0.70;;